Search for airport 
image banner adimage banner ad
image banner ad

SVGL - Galactica

Located in Plaza Miranda, Venezuela

ICAO - SVGL, IATA -

Data provided by Airmate  

General information

Coordinates: N10°28'43" W66°38'44"
Elevation is 417 feet MSL.
 
View others Airports in Barinas

Operational data

Open for public use
Current time UTC:
Current local time:
METAR: SVFM 230402Z AUTO 12001KT NCD 23/18 Q1016
View NOTAMs / SUP AIP / TFR affecting this airport [VIEW]
Communications frequencies: [VIEW]

Runways:

Airport contact information

Address: Plaza Miranda Venezuela

Satellite view of SVGL